METAR Data
IDs: Format: Raw Decoded Include TAF

Data at: 1348 UTC 26 Feb 2021

EDDR 261320Z 03009KT 340V060 9999 -RA BKN013 BKN026 06/04 Q1032 NOSIG